createdAt,value
2022-10-22T00:00:59.595Z,0
2022-10-22T00:02:00.190Z,0
2022-10-22T00:03:00.846Z,0
2022-10-22T00:04:01.433Z,0
2022-10-22T00:05:02.032Z,0
2022-10-22T00:06:02.619Z,0
2022-10-22T00:07:03.215Z,0
2022-10-22T00:08:03.814Z,0
2022-10-22T00:09:04.481Z,0
2022-10-22T00:10:05.057Z,0
2022-10-22T00:11:05.653Z,0
2022-10-22T00:12:06.247Z,0
2022-10-22T00:13:06.843Z,0
2022-10-22T00:14:07.438Z,0
2022-10-22T00:15:08.035Z,0
2022-10-22T00:16:08.634Z,0
2022-10-22T00:17:11.550Z,0
2022-10-22T00:18:10.808Z,0
2022-10-22T00:19:11.404Z,0
2022-10-22T00:20:11.999Z,0
2022-10-22T00:21:12.592Z,0
2022-10-22T00:22:13.186Z,0
2022-10-22T00:23:13.785Z,0
2022-10-22T00:24:14.397Z,0
2022-10-22T00:25:14.993Z,0
2022-10-22T00:26:15.587Z,0
2022-10-22T00:27:16.181Z,0
2022-10-22T00:28:16.797Z,0
2022-10-22T00:29:17.393Z,0
2022-10-22T00:30:17.984Z,0
2022-10-22T00:31:18.581Z,0
2022-10-22T00:32:19.174Z,0
2022-10-22T00:33:19.770Z,0
2022-10-22T00:34:20.363Z,0
2022-10-22T00:35:20.955Z,0
2022-10-22T00:36:21.550Z,0
2022-10-22T00:37:22.146Z,0
2022-10-22T00:38:22.739Z,0
2022-10-22T00:39:23.335Z,0
2022-10-22T00:40:23.947Z,0
2022-10-22T00:41:24.562Z,0
2022-10-22T00:42:25.156Z,0
2022-10-22T00:43:25.760Z,0
2022-10-22T00:44:26.346Z,0
2022-10-22T00:45:26.942Z,0
2022-10-22T00:46:27.536Z,0
2022-10-22T00:47:28.130Z,0
2022-10-22T00:48:28.723Z,0
2022-10-22T00:49:29.316Z,0
2022-10-22T00:50:29.912Z,0
2022-10-22T00:51:30.506Z,0
2022-10-22T00:52:31.100Z,0
2022-10-22T00:53:31.695Z,0
2022-10-22T00:54:32.289Z,0
2022-10-22T00:55:32.886Z,0
2022-10-22T00:56:33.478Z,0
2022-10-22T00:57:34.074Z,0
2022-10-22T00:58:34.668Z,0
2022-10-22T00:59:35.263Z,0
2022-10-22T01:00:35.916Z,0
2022-10-22T01:01:36.454Z,0
2022-10-22T01:02:37.104Z,0
2022-10-22T01:03:37.940Z,0
2022-10-22T01:04:38.538Z,0
2022-10-22T01:05:39.152Z,0
2022-10-22T01:06:39.746Z,0
2022-10-22T01:07:40.341Z,0
2022-10-22T01:08:40.968Z,0
2022-10-22T01:09:41.529Z,0
2022-10-22T01:10:42.124Z,0
2022-10-22T01:11:42.719Z,0
2022-10-22T01:12:43.578Z,0
2022-10-22T01:13:44.171Z,0
2022-10-22T01:14:44.784Z,0
2022-10-22T01:15:45.378Z,0
2022-10-22T01:16:45.970Z,0
2022-10-22T01:17:46.891Z,0
2022-10-22T01:18:47.615Z,0
2022-10-22T01:19:48.214Z,0
2022-10-22T01:20:48.803Z,0
2022-10-22T01:21:49.399Z,0
2022-10-22T01:22:49.993Z,0
2022-10-22T01:23:50.592Z,0
2022-10-22T01:24:51.184Z,0
2022-10-22T01:25:51.784Z,0
2022-10-22T01:26:52.372Z,0
2022-10-22T01:27:52.968Z,0
2022-10-22T01:28:53.562Z,0
2022-10-22T01:29:54.157Z,0
2022-10-22T01:30:54.778Z,0
2022-10-22T01:31:55.349Z,0
2022-10-22T01:32:55.944Z,0
2022-10-22T01:33:56.538Z,0
2022-10-22T01:34:57.131Z,0
2022-10-22T01:35:57.726Z,0
2022-10-22T01:36:58.320Z,0
2022-10-22T01:37:58.917Z,0
2022-10-22T01:38:59.511Z,0
2022-10-22T01:40:00.108Z,0
2022-10-22T01:41:00.701Z,0
2022-10-22T01:42:01.300Z,0
2022-10-22T01:43:01.903Z,0
2022-10-22T01:44:02.484Z,0
2022-10-22T01:45:03.080Z,0
2022-10-22T01:46:03.675Z,0
2022-10-22T01:47:04.269Z,0
2022-10-22T01:48:04.864Z,0
2022-10-22T01:49:05.457Z,0
2022-10-22T01:50:06.051Z,0
2022-10-22T01:51:06.645Z,0
2022-10-22T01:52:07.240Z,0
2022-10-22T01:53:07.836Z,0
2022-10-22T01:54:08.454Z,0
2022-10-22T01:55:09.093Z,0
2022-10-22T01:56:09.689Z,0
2022-10-22T01:57:10.281Z,0
2022-10-22T01:58:10.876Z,0
2022-10-22T01:59:11.469Z,0
2022-10-22T02:00:12.093Z,0
2022-10-22T02:01:12.724Z,0
2022-10-22T02:02:13.325Z,0
2022-10-22T02:03:13.920Z,0
2022-10-22T02:04:14.520Z,0
2022-10-22T02:05:15.108Z,0
2022-10-22T02:06:15.702Z,0
2022-10-22T02:07:16.295Z,0
2022-10-22T02:08:16.892Z,0
2022-10-22T02:09:17.556Z,0
2022-10-22T02:10:18.198Z,0
2022-10-22T02:11:18.787Z,0
2022-10-22T02:12:19.382Z,0
2022-10-22T02:13:19.980Z,0
2022-10-22T02:14:20.570Z,0
2022-10-22T02:15:21.168Z,0
2022-10-22T02:16:21.757Z,0
2022-10-22T02:17:22.353Z,0
2022-10-22T02:18:22.947Z,0
2022-10-22T02:19:23.542Z,0
2022-10-22T02:20:24.137Z,0
2022-10-22T02:21:24.731Z,0
2022-10-22T02:22:25.324Z,0
2022-10-22T02:23:25.918Z,0
2022-10-22T02:24:26.528Z,0
2022-10-22T02:25:27.148Z,0
2022-10-22T02:26:27.737Z,0
2022-10-22T02:27:28.342Z,0
2022-10-22T02:28:28.928Z,0
2022-10-22T02:29:29.521Z,0
2022-10-22T02:30:30.118Z,0
2022-10-22T02:31:30.736Z,0
2022-10-22T02:32:31.326Z,0
2022-10-22T02:33:31.923Z,0
2022-10-22T02:34:32.536Z,0
2022-10-22T02:35:33.150Z,0
2022-10-22T02:36:33.746Z,0
2022-10-22T02:37:34.342Z,0
2022-10-22T02:38:34.936Z,0
2022-10-22T02:39:35.531Z,0
2022-10-22T02:40:36.125Z,0
2022-10-22T02:41:36.720Z,0
2022-10-22T02:42:37.414Z,0
2022-10-22T02:43:38.071Z,0
2022-10-22T02:44:38.663Z,0
2022-10-22T02:45:39.260Z,0
2022-10-22T02:46:39.853Z,0
2022-10-22T02:47:40.448Z,0
2022-10-22T02:48:41.044Z,0
2022-10-22T02:49:41.639Z,0
2022-10-22T02:50:42.235Z,0
2022-10-22T02:51:42.827Z,0
2022-10-22T02:52:43.638Z,0
2022-10-22T02:53:44.303Z,0
2022-10-22T02:54:44.896Z,0
2022-10-22T02:55:45.491Z,0
2022-10-22T02:56:46.084Z,0
2022-10-22T02:57:46.700Z,0
2022-10-22T02:58:47.294Z,0
2022-10-22T02:59:48.073Z,0
2022-10-22T03:00:48.692Z,0
2022-10-22T03:01:49.263Z,0
2022-10-22T03:02:49.857Z,0
2022-10-22T03:03:50.453Z,0
2022-10-22T03:04:51.049Z,0
2022-10-22T03:05:51.649Z,0
2022-10-22T03:06:52.241Z,0
2022-10-22T03:07:52.838Z,0
2022-10-22T03:08:53.463Z,0
2022-10-22T03:09:54.031Z,0
2022-10-22T03:10:54.624Z,0
2022-10-22T03:11:55.217Z,0
2022-10-22T03:12:55.813Z,0
2022-10-22T03:13:56.409Z,0
2022-10-22T03:14:57.003Z,0
2022-10-22T03:15:57.618Z,0
2022-10-22T03:16:58.213Z,0
2022-10-22T03:17:58.808Z,0
2022-10-22T03:18:59.399Z,0
2022-10-22T03:19:59.992Z,0
2022-10-22T03:21:00.588Z,0
2022-10-22T03:22:01.183Z,0
2022-10-22T03:23:01.778Z,0
2022-10-22T03:24:02.375Z,0
2022-10-22T03:25:02.969Z,0
2022-10-22T03:26:03.566Z,0
2022-10-22T03:27:04.155Z,0
2022-10-22T03:28:04.753Z,0
2022-10-22T03:29:05.347Z,0
2022-10-22T03:30:05.944Z,0
2022-10-22T03:31:06.537Z,0
2022-10-22T03:32:07.132Z,0
2022-10-22T03:33:07.729Z,0
2022-10-22T03:34:08.321Z,0
2022-10-22T03:35:08.916Z,0
2022-10-22T03:36:09.510Z,0
2022-10-22T03:37:10.105Z,0
2022-10-22T03:38:10.701Z,0
2022-10-22T03:39:11.298Z,0
2022-10-22T03:40:11.892Z,0
2022-10-22T03:41:12.485Z,0
2022-10-22T03:42:13.082Z,0
2022-10-22T03:43:13.674Z,0
2022-10-22T03:44:14.292Z,0
2022-10-22T03:45:14.887Z,0
2022-10-22T03:46:15.483Z,0
2022-10-22T03:47:16.079Z,0
2022-10-22T03:48:16.673Z,0
2022-10-22T03:49:17.266Z,0
2022-10-22T03:50:17.859Z,0
2022-10-22T03:51:18.451Z,0
2022-10-22T03:52:19.048Z,0
2022-10-22T03:53:19.642Z,0
2022-10-22T03:54:20.238Z,0
2022-10-22T03:55:20.831Z,0
2022-10-22T03:56:21.425Z,0
2022-10-22T03:57:22.019Z,0
2022-10-22T03:58:22.613Z,0
2022-10-22T03:59:23.208Z,0
2022-10-22T04:00:23.802Z,0
2022-10-22T04:01:24.496Z,0
2022-10-22T04:02:25.063Z,0
2022-10-22T04:03:25.657Z,0
2022-10-22T04:04:26.250Z,0
2022-10-22T04:05:26.846Z,0
2022-10-22T04:06:27.438Z,0
2022-10-22T04:07:28.038Z,0
2022-10-22T04:08:28.629Z,0
2022-10-22T04:09:29.225Z,0
2022-10-22T04:10:29.821Z,0
2022-10-22T04:11:30.413Z,0
2022-10-22T04:12:31.008Z,0
2022-10-22T04:13:31.601Z,0
2022-10-22T04:14:32.215Z,0
2022-10-22T04:15:32.822Z,0
2022-10-22T04:16:33.407Z,0
2022-10-22T04:17:33.998Z,0
2022-10-22T04:18:34.592Z,0
2022-10-22T04:19:35.187Z,0
2022-10-22T04:20:35.783Z,0
2022-10-22T04:21:36.376Z,0
2022-10-22T04:22:36.976Z,0
2022-10-22T04:23:37.566Z,0
2022-10-22T04:24:38.213Z,0
2022-10-22T04:25:38.836Z,0
2022-10-22T04:26:39.429Z,0
2022-10-22T04:27:40.363Z,0
2022-10-22T04:28:40.636Z,0
2022-10-22T04:29:41.230Z,0
2022-10-22T04:30:41.822Z,0
2022-10-22T04:31:42.419Z,0
2022-10-22T04:32:43.015Z,0
2022-10-22T04:33:43.610Z,0
2022-10-22T04:34:44.205Z,0
2022-10-22T04:35:44.807Z,0
2022-10-22T04:36:45.417Z,0
2022-10-22T04:37:46.032Z,0
2022-10-22T04:38:46.634Z,0
2022-10-22T04:39:47.244Z,0
2022-10-22T04:40:47.838Z,0
2022-10-22T04:41:48.433Z,0
2022-10-22T04:42:49.030Z,0
2022-10-22T04:43:49.624Z,0
2022-10-22T04:44:50.221Z,0
2022-10-22T04:45:50.854Z,0
2022-10-22T04:46:51.409Z,0
2022-10-22T04:47:52.024Z,0
2022-10-22T04:48:52.619Z,0
2022-10-22T04:49:53.232Z,0
2022-10-22T04:50:53.831Z,0
2022-10-22T04:51:54.424Z,0
2022-10-22T04:52:55.017Z,0
2022-10-22T04:53:55.610Z,0
2022-10-22T04:54:56.207Z,0
2022-10-22T04:55:56.801Z,0
2022-10-22T04:56:57.397Z,0
2022-10-22T04:57:57.994Z,0
2022-10-22T04:58:58.588Z,0
2022-10-22T04:59:59.185Z,0
2022-10-22T05:00:59.829Z,0
2022-10-22T05:02:00.398Z,0
2022-10-22T05:03:00.993Z,0
2022-10-22T05:04:01.591Z,0
2022-10-22T05:05:02.182Z,0
2022-10-22T05:06:02.839Z,0
2022-10-22T05:07:03.417Z,0
2022-10-22T05:08:04.011Z,0
2022-10-22T05:09:04.669Z,0
2022-10-22T05:10:05.288Z,0
2022-10-22T05:11:05.884Z,0
2022-10-22T05:12:06.481Z,0
2022-10-22T05:13:07.070Z,0
2022-10-22T05:14:07.662Z,0
2022-10-22T05:15:08.259Z,0
2022-10-22T05:16:08.874Z,0
2022-10-22T05:17:09.472Z,0
2022-10-22T05:18:10.065Z,0
2022-10-22T05:19:10.660Z,0
2022-10-22T05:20:11.252Z,0
2022-10-22T05:21:11.849Z,0
2022-10-22T05:22:12.441Z,0
2022-10-22T05:23:13.037Z,0
2022-10-22T05:24:13.632Z,0
2022-10-22T05:25:14.228Z,0
2022-10-22T05:26:14.822Z,0
2022-10-22T05:27:15.466Z,0
2022-10-22T05:28:16.025Z,4
2022-10-22T05:29:16.639Z,4
2022-10-22T05:30:17.233Z,4
2022-10-22T05:31:17.838Z,4
2022-10-22T05:32:18.420Z,4
2022-10-22T05:33:23.321Z,4
2022-10-22T05:34:20.603Z,8
2022-10-22T05:35:21.198Z,8
2022-10-22T05:36:21.791Z,12
2022-10-22T05:37:22.389Z,16
2022-10-22T05:38:22.983Z,16
2022-10-22T05:39:23.580Z,20
2022-10-22T05:40:30.608Z,24
2022-10-22T05:41:25.764Z,32
2022-10-22T05:42:26.358Z,40
2022-10-22T05:43:26.956Z,44
2022-10-22T05:44:27.548Z,56
2022-10-22T05:45:28.147Z,64
2022-10-22T05:46:28.761Z,76
2022-10-22T05:47:29.362Z,88
2022-10-22T05:48:30.038Z,100
2022-10-22T05:49:30.631Z,120
2022-10-22T05:50:31.226Z,136
2022-10-22T05:51:31.822Z,156
2022-10-22T05:52:32.418Z,176
2022-10-22T05:53:33.017Z,200
2022-10-22T05:54:33.615Z,228
2022-10-22T05:55:34.213Z,256
2022-10-22T05:56:34.810Z,284
2022-10-22T05:57:35.407Z,312
2022-10-22T05:58:36.005Z,344
2022-10-22T05:59:36.602Z,376
2022-10-22T06:00:37.202Z,404
2022-10-22T06:01:37.800Z,440
2022-10-22T06:02:38.664Z,480
2022-10-22T06:03:39.394Z,524
2022-10-22T06:04:39.992Z,576
2022-10-22T06:05:40.593Z,620
2022-10-22T06:06:41.189Z,664
2022-10-22T06:07:41.791Z,708
2022-10-22T06:08:42.412Z,756
2022-10-22T06:09:43.006Z,812
2022-10-22T06:10:43.601Z,844
2022-10-22T06:11:44.201Z,868
2022-10-22T06:12:44.845Z,884
2022-10-22T06:13:45.397Z,916
2022-10-22T06:14:45.993Z,960
2022-10-22T06:15:46.594Z,1000
2022-10-22T06:16:47.210Z,1032
2022-10-22T06:17:47.809Z,1056
2022-10-22T06:18:48.406Z,1092
2022-10-22T06:19:49.005Z,1140
2022-10-22T06:20:49.602Z,1200
2022-10-22T06:21:50.202Z,1264
2022-10-22T06:22:50.799Z,1336
2022-10-22T06:23:51.398Z,1412
2022-10-22T06:24:51.995Z,1492
2022-10-22T06:25:52.595Z,1576
2022-10-22T06:26:53.191Z,1648
2022-10-22T06:27:53.793Z,1708
2022-10-22T06:28:54.393Z,1752
2022-10-22T06:29:55.009Z,1784
2022-10-22T06:30:55.611Z,1848
2022-10-22T06:31:56.206Z,1928
2022-10-22T06:32:56.809Z,2016
2022-10-22T06:33:57.404Z,2080
2022-10-22T06:34:58.006Z,2148
2022-10-22T06:35:58.604Z,2232
2022-10-22T06:36:59.204Z,2328
2022-10-22T06:37:59.802Z,2412
2022-10-22T06:39:00.403Z,2472
2022-10-22T06:40:01.000Z,2532
2022-10-22T06:41:01.601Z,2608
2022-10-22T06:42:02.202Z,2696
2022-10-22T06:43:02.802Z,2776
2022-10-22T06:44:03.403Z,2852
2022-10-22T06:45:04.013Z,2916
2022-10-22T06:46:04.602Z,2972
2022-10-22T06:47:05.203Z,3040
2022-10-22T06:48:05.801Z,3072
2022-10-22T06:49:06.400Z,3112
2022-10-22T06:50:06.999Z,3192
2022-10-22T06:51:07.598Z,3296
2022-10-22T06:52:08.197Z,3428
2022-10-22T06:53:08.860Z,3576
2022-10-22T06:54:09.407Z,3772
2022-10-22T06:55:10.025Z,4044
2022-10-22T06:56:10.624Z,4248
2022-10-22T06:57:11.223Z,4404
2022-10-22T06:58:11.824Z,4648
2022-10-22T06:59:12.422Z,4900
2022-10-22T07:00:13.021Z,5160
2022-10-22T07:01:13.668Z,5444
2022-10-22T07:02:14.240Z,5740
2022-10-22T07:03:14.839Z,5964
2022-10-22T07:04:15.440Z,6168
2022-10-22T07:05:16.038Z,6408
2022-10-22T07:06:16.635Z,6636
2022-10-22T07:07:17.234Z,6808
2022-10-22T07:08:17.833Z,6996
2022-10-22T07:10:19.033Z,7212
2022-10-22T07:11:19.638Z,7320
2022-10-22T07:12:20.230Z,7380
2022-10-22T07:13:20.827Z,7416
2022-10-22T07:14:21.423Z,7396
2022-10-22T07:15:22.021Z,7320
2022-10-22T07:16:22.618Z,7264
2022-10-22T07:17:23.219Z,7240
2022-10-22T07:18:23.812Z,7212
2022-10-22T07:19:24.413Z,7200
2022-10-22T07:20:25.007Z,7240
2022-10-22T07:21:25.605Z,7308
2022-10-22T07:22:26.201Z,7384
2022-10-22T07:23:26.801Z,7472
2022-10-22T07:24:27.395Z,7600
2022-10-22T07:25:27.997Z,7772
2022-10-22T07:26:28.591Z,7928
2022-10-22T07:27:29.189Z,8080
2022-10-22T07:28:29.789Z,8244
2022-10-22T07:29:30.386Z,8328
2022-10-22T07:30:30.990Z,8340
2022-10-22T07:31:31.600Z,8396
2022-10-22T07:32:32.196Z,8476
2022-10-22T07:33:32.798Z,8428
2022-10-22T07:34:33.402Z,8336
2022-10-22T07:35:33.991Z,8236
2022-10-22T07:36:34.590Z,8216
2022-10-22T07:37:35.188Z,8096
2022-10-22T07:38:35.784Z,8100
2022-10-22T07:39:36.383Z,8176
2022-10-22T07:40:36.983Z,8840
2022-10-22T07:41:37.580Z,9160
2022-10-22T07:42:38.498Z,9288
2022-10-22T07:43:39.113Z,8792
2022-10-22T07:44:39.730Z,8364
2022-10-22T07:45:40.310Z,8608
2022-10-22T07:46:41.179Z,8656
2022-10-22T07:47:42.719Z,8668
2022-10-22T07:48:43.468Z,8812
2022-10-22T07:49:44.069Z,9328
2022-10-22T07:51:45.276Z,10348
2022-10-22T07:52:45.875Z,10724
2022-10-22T07:53:46.477Z,10000
2022-10-22T07:54:47.075Z,10564
2022-10-22T07:55:47.675Z,10592
2022-10-22T07:56:48.273Z,10532
2022-10-22T07:57:48.876Z,11392
2022-10-22T07:58:49.504Z,13428
2022-10-22T07:59:50.077Z,13180
2022-10-22T08:00:50.676Z,13384
2022-10-22T08:01:51.277Z,14380
2022-10-22T08:02:51.875Z,15648
2022-10-22T08:03:52.475Z,15484
2022-10-22T08:04:53.073Z,15400
2022-10-22T08:05:53.675Z,16568
2022-10-22T08:06:54.274Z,18176
2022-10-22T08:07:54.875Z,18848
2022-10-22T08:08:55.511Z,16380
2022-10-22T08:09:56.084Z,18072
2022-10-22T08:10:56.682Z,17900
2022-10-22T08:11:57.284Z,16360
2022-10-22T08:12:57.888Z,18432
2022-10-22T08:13:58.485Z,21056
2022-10-22T08:14:59.083Z,21056
2022-10-22T08:15:59.686Z,21504
2022-10-22T08:17:00.282Z,21984
2022-10-22T08:18:00.882Z,20512
2022-10-22T08:19:01.481Z,20096
2022-10-22T08:20:02.080Z,20608
2022-10-22T08:21:02.681Z,23392
2022-10-22T08:22:03.282Z,23936
2022-10-22T08:23:03.883Z,22176
2022-10-22T08:24:04.564Z,21280
2022-10-22T08:25:05.139Z,20896
2022-10-22T08:26:05.739Z,19328
2022-10-22T08:27:06.338Z,17568
2022-10-22T08:28:06.940Z,19584
2022-10-22T08:29:07.543Z,21728
2022-10-22T08:30:08.138Z,20544
2022-10-22T08:31:08.902Z,19456
2022-10-22T08:32:09.505Z,22400
2022-10-22T08:33:10.102Z,23392
2022-10-22T08:34:10.702Z,22656
2022-10-22T08:35:14.105Z,25664
2022-10-22T08:36:12.914Z,29408
2022-10-22T08:37:13.513Z,28640
2022-10-22T08:38:14.112Z,27456
2022-10-22T08:39:14.712Z,30400
2022-10-22T08:40:15.312Z,29920
2022-10-22T08:41:15.919Z,29952
2022-10-22T08:42:16.516Z,31264
2022-10-22T08:43:17.119Z,31136
2022-10-22T08:44:17.719Z,30496
2022-10-22T08:45:18.319Z,32608
2022-10-22T08:46:18.918Z,32416
2022-10-22T08:47:21.624Z,27456
2022-10-22T08:48:21.114Z,24448
2022-10-22T08:49:21.713Z,25184
2022-10-22T08:50:22.314Z,26336
2022-10-22T08:51:22.915Z,26080
2022-10-22T08:52:23.515Z,28000
2022-10-22T08:53:24.118Z,31648
2022-10-22T08:54:24.717Z,39584
2022-10-22T08:55:25.316Z,38976
2022-10-22T08:56:25.936Z,36992
2022-10-22T08:57:26.577Z,37792
2022-10-22T08:58:27.140Z,39712
2022-10-22T08:59:27.758Z,44992
2022-10-22T09:00:28.361Z,41568
2022-10-22T09:01:29.110Z,43584
2022-10-22T09:02:29.712Z,48704
2022-10-22T09:03:30.311Z,51616
2022-10-22T09:04:30.918Z,45632
2022-10-22T09:05:31.533Z,38208
2022-10-22T09:06:32.136Z,39648
2022-10-22T09:07:32.751Z,44416
2022-10-22T09:08:33.382Z,40832
2022-10-22T09:09:33.958Z,35904
2022-10-22T09:10:34.558Z,42272
2022-10-22T09:11:35.165Z,52704
2022-10-22T09:12:35.759Z,55040
2022-10-22T09:13:36.361Z,48640
2022-10-22T09:14:36.967Z,42400
2022-10-22T09:15:37.584Z,43296
2022-10-22T09:16:38.389Z,49280
2022-10-22T09:17:39.304Z,51712
2022-10-22T09:18:39.605Z,51296
2022-10-22T09:19:40.207Z,41824
2022-10-22T09:20:40.808Z,40992
2022-10-22T09:21:41.409Z,44352
2022-10-22T09:22:42.143Z,46464
2022-10-22T09:23:42.739Z,43808
2022-10-22T09:24:43.342Z,41792
2022-10-22T09:25:43.944Z,45888
2022-10-22T09:26:44.570Z,50528
2022-10-22T09:27:45.164Z,48544
2022-10-22T09:28:45.765Z,44032
2022-10-22T09:29:46.365Z,40832
2022-10-22T09:30:47.593Z,41408
2022-10-22T09:31:48.155Z,41984
2022-10-22T09:32:48.757Z,43584
2022-10-22T09:33:49.355Z,47520
2022-10-22T09:34:49.959Z,50912
2022-10-22T09:35:50.562Z,53184
2022-10-22T09:36:51.159Z,57632
2022-10-22T09:37:51.759Z,58592
2022-10-22T09:38:52.359Z,52672
2022-10-22T09:39:52.956Z,46368
2022-10-22T09:40:53.559Z,45824
2022-10-22T09:41:54.157Z,49184
2022-10-22T09:42:54.758Z,49536
2022-10-22T09:43:55.812Z,44160
2022-10-22T09:44:56.419Z,41280
2022-10-22T09:45:57.033Z,45696
2022-10-22T09:46:57.647Z,53472
2022-10-22T09:48:01.805Z,61440
2022-10-22T09:48:59.841Z,63264
2022-10-22T09:50:00.444Z,60128
2022-10-22T09:51:01.045Z,56960
2022-10-22T09:52:01.649Z,56064
2022-10-22T09:53:02.245Z,58560
2022-10-22T09:54:02.848Z,69632
2022-10-22T09:55:03.450Z,83424
2022-10-22T09:56:04.054Z,54208
2022-10-22T09:57:04.671Z,40128
2022-10-22T09:58:05.274Z,47008
2022-10-22T09:59:05.872Z,56384
2022-10-22T10:00:06.472Z,49312
2022-10-22T10:01:07.077Z,71424
2022-10-22T10:02:19.828Z,72224
2022-10-22T10:03:09.302Z,70528
2022-10-22T10:04:10.199Z,59296
2022-10-22T10:05:10.744Z,37568
2022-10-22T10:06:11.346Z,57888
2022-10-22T10:07:11.948Z,59840
2022-10-22T10:08:12.548Z,75328
2022-10-22T10:09:13.187Z,31840
2022-10-22T10:10:13.749Z,55072
2022-10-22T10:11:14.350Z,52672
2022-10-22T10:12:14.971Z,26848
2022-10-22T10:13:15.574Z,42432
2022-10-22T10:14:16.174Z,70304
2022-10-22T10:15:16.775Z,68224
2022-10-22T10:16:17.374Z,63040
2022-10-22T10:17:17.975Z,31840
2022-10-22T10:18:18.594Z,52352
2022-10-22T10:19:19.206Z,56672
2022-10-22T10:20:19.794Z,63744
2022-10-22T10:21:20.417Z,66112
2022-10-22T10:22:21.026Z,68416
2022-10-22T10:23:24.442Z,74624
2022-10-22T10:24:23.218Z,30304
2022-10-22T10:25:23.820Z,69728
2022-10-22T10:26:24.420Z,76192
2022-10-22T10:27:25.021Z,32896
2022-10-22T10:28:25.621Z,82464
2022-10-22T10:29:26.263Z,77696
2022-10-22T10:30:26.833Z,76352
2022-10-22T10:31:27.429Z,87040
2022-10-22T10:32:28.030Z,26432
2022-10-22T10:33:28.648Z,97504
2022-10-22T10:34:29.290Z,91168
2022-10-22T10:35:29.892Z,78144
2022-10-22T10:36:30.514Z,36064
2022-10-22T10:37:31.116Z,51232
2022-10-22T10:38:31.717Z,90048
2022-10-22T10:39:32.338Z,74880
2022-10-22T10:40:32.949Z,34656
2022-10-22T10:41:33.585Z,35456
2022-10-22T10:42:34.199Z,54976
2022-10-22T10:43:34.795Z,35744
2022-10-22T10:44:35.395Z,36224
2022-10-22T10:45:35.997Z,33184
2022-10-22T10:46:37.260Z,31456
2022-10-22T10:47:37.935Z,25024
2022-10-22T10:48:38.508Z,16392
2022-10-22T10:49:39.110Z,16080
2022-10-22T10:50:39.714Z,23968
2022-10-22T10:51:40.312Z,26368
2022-10-22T10:52:40.913Z,25280
2022-10-22T10:53:41.514Z,30976
2022-10-22T10:54:42.119Z,56736
2022-10-22T10:55:42.722Z,85024
2022-10-22T10:56:43.317Z,39136
2022-10-22T10:57:44.079Z,22368
2022-10-22T10:58:44.721Z,38528
2022-10-22T10:59:45.321Z,44096
2022-10-22T11:00:45.922Z,22336
2022-10-22T11:01:46.598Z,22880
2022-10-22T11:02:47.224Z,23328
2022-10-22T11:03:47.807Z,49568
2022-10-22T11:04:48.432Z,67392
2022-10-22T11:05:49.031Z,40992
2022-10-22T11:06:49.635Z,51936
2022-10-22T11:07:55.551Z,52128
2022-10-22T11:08:51.883Z,39808
2022-10-22T11:09:52.432Z,42848
2022-10-22T11:10:53.033Z,52672
2022-10-22T11:11:53.634Z,66016
2022-10-22T11:12:54.241Z,82368
2022-10-22T11:13:54.837Z,87936
2022-10-22T11:14:55.440Z,92896
2022-10-22T11:15:56.042Z,91168
2022-10-22T11:16:56.642Z,50336
2022-10-22T11:17:57.264Z,44672
2022-10-22T11:18:57.865Z,25888
2022-10-22T11:20:00.137Z,27968
2022-10-22T11:21:00.133Z,31360
2022-10-22T11:22:00.721Z,74688
2022-10-22T11:23:18.946Z,30720
2022-10-22T11:24:02.935Z,29664
2022-10-22T11:25:03.580Z,28416
2022-10-22T11:26:04.158Z,27552
2022-10-22T11:27:04.761Z,27168
2022-10-22T11:28:10.353Z,26112
2022-10-22T11:29:06.974Z,25248
2022-10-22T11:30:07.574Z,24704
2022-10-22T11:31:08.175Z,24128
2022-10-22T11:32:08.775Z,25312
2022-10-22T11:33:09.376Z,24192
2022-10-22T11:34:28.846Z,26688
2022-10-22T11:35:11.471Z,25376
2022-10-22T11:36:12.072Z,25760
2022-10-22T11:37:12.692Z,25664
2022-10-22T11:38:13.286Z,25024
2022-10-22T11:39:13.886Z,24352
2022-10-22T11:40:14.484Z,25088
2022-10-22T11:41:15.086Z,27392
2022-10-22T11:42:15.689Z,27168
2022-10-22T11:43:16.289Z,26240
2022-10-22T11:44:16.888Z,23648
2022-10-22T11:45:17.487Z,24032
2022-10-22T11:46:18.092Z,24768
2022-10-22T11:47:18.686Z,24032
2022-10-22T11:48:19.295Z,21184
2022-10-22T11:49:19.885Z,19584
2022-10-22T11:50:20.481Z,19616
2022-10-22T11:51:21.082Z,19232
2022-10-22T11:52:21.681Z,19520
2022-10-22T11:53:22.285Z,19648
2022-10-22T11:54:22.882Z,20064
2022-10-22T11:55:23.486Z,21056
2022-10-22T11:56:24.104Z,22624
2022-10-22T11:57:24.705Z,22848
2022-10-22T11:58:25.307Z,20704
2022-10-22T11:59:25.907Z,22912
2022-10-22T12:00:26.505Z,28928
2022-10-22T12:01:27.205Z,26912
2022-10-22T12:02:27.765Z,23616
2022-10-22T12:03:28.363Z,25728
2022-10-22T12:04:29.001Z,26080
2022-10-22T12:05:29.595Z,21696
2022-10-22T12:06:30.195Z,21184
2022-10-22T12:07:30.794Z,22304
2022-10-22T12:08:31.431Z,24576
2022-10-22T12:09:31.994Z,24736
2022-10-22T12:10:32.592Z,23104
2022-10-22T12:11:33.193Z,22112
2022-10-22T12:12:33.793Z,21664
2022-10-22T12:13:34.395Z,22624
2022-10-22T12:14:35.009Z,21984
2022-10-22T12:15:35.608Z,23008
2022-10-22T12:16:56.233Z,25280
2022-10-22T12:17:37.809Z,27360
2022-10-22T12:18:38.411Z,33216
2022-10-22T12:19:39.012Z,45856
2022-10-22T12:20:39.612Z,76128
2022-10-22T12:21:40.212Z,54656
2022-10-22T12:22:41.052Z,45792
2022-10-22T12:23:41.818Z,53184
2022-10-22T12:24:42.420Z,82880
2022-10-22T12:25:43.020Z,63680
2022-10-22T12:26:43.623Z,72448
2022-10-22T12:27:44.488Z,24096
2022-10-22T12:28:45.151Z,56704
2022-10-22T12:29:45.753Z,26112
2022-10-22T12:30:46.353Z,57888
2022-10-22T12:31:46.955Z,86560
2022-10-22T12:32:47.557Z,78240
2022-10-22T12:33:48.154Z,73632
2022-10-22T12:35:49.360Z,80160
2022-10-22T12:36:49.961Z,80544
2022-10-22T12:37:50.563Z,78592
2022-10-22T12:38:51.161Z,72576
2022-10-22T12:39:51.783Z,58208
2022-10-22T12:40:52.383Z,40384
2022-10-22T12:41:52.984Z,30816
2022-10-22T12:42:53.584Z,78816
2022-10-22T12:43:54.187Z,33536
2022-10-22T12:44:54.806Z,40704
2022-10-22T12:45:55.424Z,81184
2022-10-22T12:46:57.144Z,41440
2022-10-22T12:47:57.619Z,47232
2022-10-22T12:48:58.221Z,66592
2022-10-22T12:49:58.828Z,22688
2022-10-22T12:50:59.442Z,17484
2022-10-22T12:52:00.043Z,15212
2022-10-22T12:53:00.646Z,14136
2022-10-22T12:54:01.244Z,12752
2022-10-22T12:55:01.844Z,11880
2022-10-22T12:56:02.445Z,11076
2022-10-22T12:57:03.047Z,10588
2022-10-22T12:58:03.646Z,10636
2022-10-22T12:59:04.248Z,11076
2022-10-22T13:00:04.982Z,11480
2022-10-22T13:01:05.625Z,11636
2022-10-22T13:02:09.048Z,11748
2022-10-22T13:03:07.789Z,12352
2022-10-22T13:04:08.390Z,13036
2022-10-22T13:05:08.990Z,13356
2022-10-22T13:06:09.589Z,12836
2022-10-22T13:07:10.189Z,12356
2022-10-22T13:08:10.786Z,12216
2022-10-22T13:09:11.430Z,11864
2022-10-22T13:10:12.023Z,11456
2022-10-22T13:11:12.621Z,11880
2022-10-22T13:12:13.225Z,13152
2022-10-22T13:13:13.819Z,14456
2022-10-22T13:14:14.418Z,14496
2022-10-22T13:15:15.017Z,13684
2022-10-22T13:16:15.618Z,12908
2022-10-22T13:17:16.217Z,12072
2022-10-22T13:18:16.823Z,11032
2022-10-22T13:19:17.439Z,11532
2022-10-22T13:20:18.041Z,13236
2022-10-22T13:21:18.659Z,16280
2022-10-22T13:22:19.279Z,22400
2022-10-22T13:23:19.881Z,33568
2022-10-22T13:24:20.481Z,48576
2022-10-22T13:25:21.081Z,58848
2022-10-22T13:26:21.702Z,37984
2022-10-22T13:27:22.302Z,31616
2022-10-22T13:28:22.904Z,30592
2022-10-22T13:29:23.510Z,27744
2022-10-22T13:30:24.106Z,26592
2022-10-22T13:31:24.707Z,25376
2022-10-22T13:32:25.326Z,25408
2022-10-22T13:33:25.924Z,25760
2022-10-22T13:34:26.522Z,26784
2022-10-22T13:35:27.123Z,28992
2022-10-22T13:36:27.723Z,32064
2022-10-22T13:37:28.324Z,31808
2022-10-22T13:38:28.925Z,26240
2022-10-22T13:39:29.527Z,22912
2022-10-22T13:40:30.126Z,19616
2022-10-22T13:41:30.767Z,17524
2022-10-22T13:42:31.344Z,16880
2022-10-22T13:43:31.946Z,16796
2022-10-22T13:44:32.561Z,16880
2022-10-22T13:45:33.161Z,15540
2022-10-22T13:46:33.781Z,14416
2022-10-22T13:47:34.377Z,13904
2022-10-22T13:48:34.980Z,15076
2022-10-22T13:49:35.581Z,15976
2022-10-22T13:50:36.181Z,15548
2022-10-22T13:51:36.779Z,15468
2022-10-22T13:52:37.381Z,14968
2022-10-22T13:53:37.986Z,14328